Observation data for Seymour on 04/23/2019      Previous  Date  Next       Current Mesonet Observations  Soil Data  Daily Summary Page  Observations in Plain Language
KSE1 230500Z 12010KT 20/16 A2996 RMK A01 T02010159  RH  081%=      5-min Rain = 0
KSE1 230505Z 12009KT 20/16 A2996 RMK A01 T02000159  RH  081%=      5-min Rain = 0
KSE1 230510Z 12010KT 20/16 A2996 RMK A01 T01990159  RH  081%=      5-min Rain = 0
KSE1 230515Z 12011KT 20/16 A2996 RMK A01 T01980159  RH  082%=      5-min Rain = 0
KSE1 230520Z 12010KT 20/16 A2996 RMK A01 T01980158  RH  082%=      5-min Rain = 0
KSE1 230525Z 12009KT 20/16 A2996 RMK A01 T01970158  RH  082%=      5-min Rain = 0
KSE1 230530Z 12008KT 20/16 A2996 RMK A01 T01950158  RH  083%=      5-min Rain = 0
KSE1 230535Z 12009KT 20/16 A2996 RMK A01 T01950158  RH  083%=      5-min Rain = 0
KSE1 230540Z 13009KT 20/16 A2996 RMK A01 T01950157  RH  082%=      5-min Rain = 0
KSE1 230545Z 13010KT 20/16 A2996 RMK A01 T01950157  RH  082%=      5-min Rain = 0
KSE1 230550Z 13010KT 20/16 A2996 RMK A01 T01960157  RH  082%=      5-min Rain = 0
KSE1 230555Z 13010KT 20/16 A2996 RMK A01 T01950157  RH  083%=      5-min Rain = 0
KSE1 230600Z 13010KT 20/16 A2997 RMK A01 T01960157  RH  082%=      5-min Rain = 0
KSE1 230605Z 13009KT 20/16 A2997 RMK A01 T01950158  RH  083%=      5-min Rain = 0
KSE1 230610Z 13008KT 19/16 A2997 RMK A01 T01940158  RH  084%=      5-min Rain = 0
KSE1 230615Z 13009KT 19/16 A2997 RMK A01 T01930158  RH  084%=      5-min Rain = 0
KSE1 230620Z 14009KT 19/16 A2997 RMK A01 T01930158  RH  084%=      5-min Rain = 0
KSE1 230625Z 14009KT 19/16 A2997 RMK A01 T01930158  RH  084%=      5-min Rain = 0
KSE1 230630Z 14009KT 19/16 A2997 RMK A01 T01940158  RH  083%=      5-min Rain = 0
KSE1 230635Z 14008KT 19/16 A2997 RMK A01 T01940158  RH  083%=      5-min Rain = 0
KSE1 230640Z 14009KT 20/16 A2997 RMK A01 T01950158  RH  083%=      5-min Rain = 0
KSE1 230645Z 14010KT 20/16 A2997 RMK A01 T01950158  RH  083%=      5-min Rain = 0
KSE1 230650Z 15010KT 20/16 A2997 RMK A01 T01960158  RH  082%=      5-min Rain = 0
KSE1 230655Z 15009KT 20/16 A2997 RMK A01 T01950158  RH  083%=      5-min Rain = 0
KSE1 230700Z 15010KT 20/16 A2997 RMK A01 T01960158  RH  082%=      5-min Rain = 0
KSE1 230705Z 15009KT 20/16 A2997 RMK A01 T01960158  RH  082%=      5-min Rain = 0
KSE1 230710Z 14010KT 20/16 A2996 RMK A01 T01960158  RH  082%=      5-min Rain = 0
KSE1 230715Z 14010G15KT 20/16 A2996 RMK A01 T01960157  RH  082%=      5-min Rain = 0
KSE1 230720Z 14010KT 20/16 A2996 RMK A01 T01970157  RH  082%=      5-min Rain = 0
KSE1 230725Z 14009KT 20/16 A2995 RMK A01 T01970157  RH  082%=      5-min Rain = 0
KSE1 230730Z 14010KT 20/16 A2996 RMK A01 T01960157  RH  082%=      5-min Rain = 0
KSE1 230735Z 14010KT 20/16 A2995 RMK A01 T01970156  RH  081%=      5-min Rain = 0
KSE1 230740Z 14010KT 20/16 A2995 RMK A01 T01980156  RH  081%=      5-min Rain = 0
KSE1 230745Z 14009KT 20/16 A2995 RMK A01 T01970156  RH  081%=      5-min Rain = 0
KSE1 230750Z 14010KT 20/16 A2995 RMK A01 T01960156  RH  082%=      5-min Rain = 0
KSE1 230755Z 14010KT 20/16 A2994 RMK A01 T01950156  RH  082%=      5-min Rain = 0
KSE1 230800Z 14009KT 20/16 A2994 RMK A01 T01950156  RH  082%=      5-min Rain = 0
KSE1 230805Z 13009KT 19/16 A2994 RMK A01 T01930156  RH  083%=      5-min Rain = 0
KSE1 230810Z 14009KT 19/16 A2994 RMK A01 T01920155  RH  083%=      5-min Rain = 0
KSE1 230815Z 14009KT 19/16 A2994 RMK A01 T01910155  RH  083%=      5-min Rain = 0
KSE1 230820Z 14008KT 19/16 A2994 RMK A01 T01910155  RH  084%=      5-min Rain = 0
KSE1 230825Z 14008KT 19/16 A2994 RMK A01 T01900155  RH  084%=      5-min Rain = 0
KSE1 230830Z 14008KT 19/16 A2994 RMK A01 T01910156  RH  084%=      5-min Rain = 0
KSE1 230835Z 14008KT 19/16 A2994 RMK A01 T01900156  RH  084%=      5-min Rain = 0
KSE1 230840Z 14007KT 19/16 A2994 RMK A01 T01900156  RH  084%=      5-min Rain = 0
KSE1 230845Z 14007KT 19/16 A2994 RMK A01 T01900155  RH  084%=      5-min Rain = 0
KSE1 230850Z 14008KT 19/16 A2994 RMK A01 T01900155  RH  084%=      5-min Rain = 0
KSE1 230855Z 15008KT 19/16 A2994 RMK A01 T01900155  RH  084%=      5-min Rain = 0
KSE1 230900Z 15007KT 19/16 A2994 RMK A01 T01910155  RH  084%=      5-min Rain = 0
KSE1 230905Z 16006KT 19/16 A2995 RMK A01 T01900155  RH  084%=      5-min Rain = 0
KSE1 230910Z 27006KT 19/16 A2995 RMK A01 T01900155  RH  084%=      5-min Rain = 0
KSE1 230915Z 30007KT 19/16 A2995 RMK A01 T01890157  RH  085%=      5-min Rain = 0
KSE1 230920Z 29005KT 19/16 A2995 RMK A01 T01900158  RH  085%=      5-min Rain = 0
KSE1 230925Z 19003KT 19/16 A2995 RMK A01 T01900156  RH  085%=      5-min Rain = 0
KSE1 230930Z 17003KT 19/16 A2995 RMK A01 T01910155  RH  083%=      5-min Rain = 0
KSE1 230935Z 26004KT 19/16 A2996 RMK A01 T01900155  RH  084%=      5-min Rain = 0
KSE1 230940Z 24002KT 19/16 A2996 RMK A01 T01900155  RH  084%=      5-min Rain = 0
KSE1 230945Z 26004KT 19/16 A2996 RMK A01 T01880155  RH  085%=      5-min Rain = 0
KSE1 230950Z 24005KT 19/16 A2996 RMK A01 T01890155  RH  084%=      5-min Rain = 0
KSE1 230955Z 21003KT 19/15 A2996 RMK A01 T01900154  RH  084%=      5-min Rain = 0
KSE1 231000Z 23002KT 19/16 A2997 RMK A01 T01890155  RH  084%=      5-min Rain = 0
KSE1 231005Z 23001KT 19/16 A2997 RMK A01 T01890155  RH  085%=      5-min Rain = 0
KSE1 231010Z 24001KT 19/16 A2997 RMK A01 T01890155  RH  085%=      5-min Rain = 0
KSE1 231015Z 21002KT 19/16 A2997 RMK A01 T01890156  RH  085%=      5-min Rain = 0
KSE1 231020Z 17004KT 19/16 A2997 RMK A01 T01900155  RH  084%=      5-min Rain = 0
KSE1 231025Z 15005KT 19/15 A2997 RMK A01 T01900154  RH  083%=      5-min Rain = 0
KSE1 231030Z 14003KT 19/16 A2997 RMK A01 T01900155  RH  084%=      5-min Rain = 0
KSE1 231035Z 13003KT 19/16 A2997 RMK A01 T01880155  RH  085%=      5-min Rain = 0
KSE1 231040Z 07003KT 19/16 A2997 RMK A01 T01880155  RH  085%=      5-min Rain = 0
KSE1 231045Z 02006KT 18/15 A2997 RMK A01 T01820151  RH  086%=      5-min Rain = 0
KSE1 231050Z 02007KT 18/15 A2997 RMK A01 T01770151  RH  089%=      5-min Rain = 0
KSE1 231055Z 02008KT 18/15 A2997 RMK A01 T01750151  RH  090%=      5-min Rain = 0
KSE1 231100Z 02010KT 17/15 A2997 RMK A01 T01710148  RH  090%=      5-min Rain = 0
KSE1 231105Z 01011KT 17/14 A2997 RMK A01 T01660144  RH  090%=      5-min Rain = 0
KSE1 231110Z 01012KT 16/14 A2998 RMK A01 T01630141  RH  091%=      5-min Rain = 0
KSE1 231115Z 02012KT 16/14 A2998 RMK A01 T01600139  RH  091%=      5-min Rain = 0
KSE1 231120Z 02010KT 16/14 A2998 RMK A01 T01600139  RH  091%=      5-min Rain = 0
KSE1 231125Z 02011KT 16/14 A2998 RMK A01 T01590138  RH  091%=      5-min Rain = 0
KSE1 231130Z 03010KT 16/14 A2999 RMK A01 T01590137  RH  091%=      5-min Rain = 0
KSE1 231135Z 03012KT 16/14 A2999 RMK A01 T01580137  RH  091%=      5-min Rain = 0
KSE1 231140Z 03013KT 16/14 A2999 RMK A01 T01570136  RH  091%=      5-min Rain = 0
KSE1 231145Z 03012KT 16/14 A2999 RMK A01 T01560136  RH  092%=      5-min Rain = 0
KSE1 231150Z 04009KT 16/14 A2999 RMK A01 T01560137  RH  092%=      5-min Rain = 0
KSE1 231155Z 04006KT 16/14 A2999 RMK A01 T01550137  RH  093%=      5-min Rain = 0
KSE1 231200Z 03008KT 16/14 A2999 RMK A01 T01550138  RH  093%=      5-min Rain = 0
KSE1 231205Z 04009G14KT 16/14 A2999 RMK A01 T01550138  RH  093%=      5-min Rain = 0
KSE1 231210Z 03013G18KT 16/14 A2999 RMK A01 T01550138  RH  094%=      5-min Rain = 0
KSE1 231215Z 04014KT 15/14 A2999 RMK A01 T01540137  RH  094%=      5-min Rain = 0
KSE1 231220Z 04012G17KT 15/14 A2999 RMK A01 T01530137  RH  094%=      5-min Rain = 0
KSE1 231225Z 04013KT 15/14 A30 RMK A01 T01530137  RH  094%=      5-min Rain = 0
KSE1 231230Z 03011KT 15/14 A30 RMK A01 T01530137  RH  094%=      5-min Rain = 0
KSE1 231235Z 04010KT 15/14 A30 RMK A01 T01530137  RH  094%=      5-min Rain = 0
KSE1 231240Z 04009KT 15/14 A30 RMK A01 T01520137  RH  094%=      5-min Rain = 0
KSE1 231245Z 04011G16KT 15/14 A30 RMK A01 T01520136  RH  094%=      5-min Rain = 0
KSE1 231250Z 04012KT 15/14 A30 RMK A01 T01520136  RH  094%=      5-min Rain = 0
KSE1 231255Z 04011G16KT 15/14 A30 RMK A01 T01520136  RH  094%=      5-min Rain = 0
KSE1 231300Z 04011KT 15/14 A30 RMK A01 T01520137  RH  094%=      5-min Rain = 0
KSE1 231305Z 04009KT 15/14 A30 RMK A01 T01520137  RH  094%=      5-min Rain = 0
KSE1 231310Z 05009KT 15/14 A30 RMK A01 T01520136  RH  094%=      5-min Rain = 0
KSE1 231315Z 05007KT 15/14 A30 RMK A01 T01530137  RH  094%=      5-min Rain = 0
KSE1 231320Z 06008KT 15/14 A30 RMK A01 T01540138  RH  094%=      5-min Rain = 0
KSE1 231325Z 05009G14KT 15/14 A30 RMK A01 T01540139  RH  095%=      5-min Rain = 0
KSE1 231330Z 05007KT 15/14 A3001 RMK A01 T01540140  RH  095%=      5-min Rain = 0
KSE1 231335Z 05009G14KT 15/14 A3001 RMK A01 T01540140  RH  095%=      5-min Rain = 0
KSE1 231340Z 05009KT 15/14 A3001 RMK A01 T01540141  RH  095%=      5-min Rain = 0
KSE1 231345Z 06009KT 15/14 A3001 RMK A01 T01540141  RH  095%=      5-min Rain = 0
KSE1 231350Z 05010KT 15/14 A3001 RMK A01 T01540141  RH  095%=      5-min Rain = 0
KSE1 231355Z 04010KT 15/14 A3002 RMK A01 T01540141  RH  096%=      5-min Rain = 0
KSE1 231400Z 04011KT 15/14 A3002 RMK A01 T01540141  RH  096%=      5-min Rain = 0
KSE1 231405Z 02011KT 15/14 A3002 RMK A01 T01540141  RH  096%=      5-min Rain = 0
KSE1 231410Z 35014KT 15/14 A3003 RMK A01 T01540141  RH  096%=      5-min Rain = 0
KSE1 231415Z 35016KT 15/14 A3004 RMK A01 T01530141  RH  096%=      5-min Rain = 0
KSE1 231420Z 02013G18KT 15/14 A3003 RMK A01 T01520140  RH  096%=      5-min Rain = 0
KSE1 231425Z 03014G20KT 15/14 A3003 RMK A01 T01520139  RH  096%=      5-min Rain = 0.01
KSE1 231430Z 04015G20KT 15/14 A3003 RMK A01 T01520138  RH  095%=      5-min Rain = 0
KSE1 231435Z 02012KT 15/14 A3003 RMK A01 T01520139  RH  096%=      5-min Rain = 0.01
KSE1 231440Z 02014KT 15/14 A3003 RMK A01 T01520139  RH  096%=      5-min Rain = 0
KSE1 231445Z 03011G16KT 15/14 A3003 RMK A01 T01530140  RH  096%=      5-min Rain = 0
KSE1 231450Z 04011G16KT 15/14 A3003 RMK A01 T01540140  RH  096%=      5-min Rain = 0
KSE1 231455Z 04012KT 15/14 A3003 RMK A01 T01530139  RH  095%=      5-min Rain = 0
KSE1 231500Z 05012G19KT 15/14 A3002 RMK A01 T01530139  RH  095%=      5-min Rain = 0
KSE1 231505Z 05010KT 15/14 A3002 RMK A01 T01540140  RH  095%=      5-min Rain = 0
KSE1 231510Z 05011G17KT 16/14 A3003 RMK A01 T01550139  RH  094%=      5-min Rain = 0
KSE1 231515Z 04011KT 16/14 A3003 RMK A01 T01550139  RH  094%=      5-min Rain = 0
KSE1 231520Z 05010KT 16/14 A3003 RMK A01 T01560139  RH  094%=      5-min Rain = 0
KSE1 231525Z 06010KT 16/14 A3003 RMK A01 T01560139  RH  094%=      5-min Rain = 0
KSE1 231530Z 05010KT 16/14 A3003 RMK A01 T01570140  RH  094%=      5-min Rain = 0
KSE1 231535Z 05010KT 16/14 A3003 RMK A01 T01600142  RH  093%=      5-min Rain = 0
KSE1 231540Z 05010G15KT 16/14 A3003 RMK A01 T01600142  RH  093%=      5-min Rain = 0
KSE1 231545Z 06011KT 16/14 A3003 RMK A01 T01600141  RH  092%=      5-min Rain = 0
KSE1 231550Z 05009G14KT 16/14 A3004 RMK A01 T01600140  RH  092%=      5-min Rain = 0
KSE1 231555Z 05009G16KT 16/14 A3004 RMK A01 T01590139  RH  091%=      5-min Rain = 0
KSE1 231600Z 06010G16KT 16/14 A3004 RMK A01 T01570135  RH  091%=      5-min Rain = 0
KSE1 231605Z 05008G13KT 16/14 A3004 RMK A01 T01570136  RH  091%=      5-min Rain = 0
KSE1 231610Z 05009KT 16/14 A3004 RMK A01 T01580137  RH  091%=      5-min Rain = 0
KSE1 231615Z 05008G13KT 16/14 A3004 RMK A01 T01580137  RH  091%=      5-min Rain = 0
KSE1 231620Z 04007G12KT 16/14 A3004 RMK A01 T01580137  RH  091%=      5-min Rain = 0
KSE1 231625Z 04010KT 16/14 A3004 RMK A01 T01580138  RH  091%=      5-min Rain = 0
KSE1 231630Z 03009KT 16/14 A3004 RMK A01 T01590139  RH  092%=      5-min Rain = 0
KSE1 231635Z 03009G14KT 16/14 A3004 RMK A01 T01580139  RH  092%=      5-min Rain = 0
KSE1 231640Z 03011KT 16/14 A3003 RMK A01 T01580139  RH  092%=      5-min Rain = 0
KSE1 231645Z 02009KT 16/14 A3003 RMK A01 T01590139  RH  092%=      5-min Rain = 0
KSE1 231650Z 02009KT 16/14 A3004 RMK A01 T01580139  RH  092%=      5-min Rain = 0
KSE1 231655Z 05006KT 16/14 A3005 RMK A01 T01570138  RH  092%=      5-min Rain = 0.01
KSE1 231700Z 08003KT 16/14 A3007 RMK A01 T01560137  RH  092%=      5-min Rain = 0.03
KSE1 231705Z 01004KT 16/14 A3006 RMK A01 T01550138  RH  093%=      5-min Rain = 0.04
KSE1 231710Z 00009KT 16/14 A3005 RMK A01 T01560139  RH  094%=      5-min Rain = 0.01
KSE1 231715Z 02011KT 16/14 A3003 RMK A01 T01550139  RH  094%=      5-min Rain = 0.02
KSE1 231720Z 03012KT 15/14 A3001 RMK A01 T01540139  RH  095%=      5-min Rain = 0.01
KSE1 231725Z 02006G11KT 15/14 A3003 RMK A01 T01540140  RH  095%=      5-min Rain = 0.01
KSE1 231730Z 02004KT 16/14 A3005 RMK A01 T01550141  RH  095%=      5-min Rain = 0
KSE1 231735Z 00004KT 16/14 A3006 RMK A01 T01560142  RH  095%=      5-min Rain = 0.01
KSE1 231740Z 00008KT 16/14 A3005 RMK A01 T01570142  RH  095%=      5-min Rain = 0
KSE1 231745Z 01011KT 16/14 A3003 RMK A01 T01570141  RH  094%=      5-min Rain = 0
KSE1 231750Z 01008KT 16/14 A3004 RMK A01 T01590143  RH  094%=      5-min Rain = 0
KSE1 231755Z 01011KT 16/15 A3002 RMK A01 T01640147  RH  093%=      5-min Rain = 0
KSE1 231800Z 03011KT 17/15 A3001 RMK A01 T01650146  RH  092%=      5-min Rain = 0
KSE1 231805Z 03011KT 17/15 A3001 RMK A01 T01660146  RH  092%=      5-min Rain = 0
KSE1 231810Z 04009KT 17/15 A30 RMK A01 T01680147  RH  092%=      5-min Rain = 0
KSE1 231815Z 04010G15KT 18/16 A30 RMK A01 T01760155  RH  091%=      5-min Rain = 0
KSE1 231820Z 04012KT 18/16 A30 RMK A01 T01790155  RH  090%=      5-min Rain = 0
KSE1 231825Z 05011KT 18/15 A2999 RMK A01 T01780153  RH  089%=      5-min Rain = 0
KSE1 231830Z 06012KT 18/15 A2999 RMK A01 T01800154  RH  089%=      5-min Rain = 0
KSE1 231835Z 08010G15KT 18/16 A2998 RMK A01 T01830156  RH  089%=      5-min Rain = 0
KSE1 231840Z 06010G15KT 18/16 A2999 RMK A01 T01830155  RH  088%=      5-min Rain = 0
KSE1 231845Z 04011KT 18/15 A2999 RMK A01 T01810153  RH  087%=      5-min Rain = 0
KSE1 231850Z 05009KT 19/16 A2999 RMK A01 T01850155  RH  087%=      5-min Rain = 0
KSE1 231855Z 04009KT 19/15 A2999 RMK A01 T01850153  RH  086%=      5-min Rain = 0
KSE1 231900Z 05008G13KT 19/16 A30 RMK A01 T01880155  RH  085%=      5-min Rain = 0
KSE1 231905Z 05007G12KT 19/16 A30 RMK A01 T01890156  RH  085%=      5-min Rain = 0
KSE1 231910Z 04009KT 19/15 A30 RMK A01 T01880154  RH  084%=      5-min Rain = 0
KSE1 231915Z 03011KT 19/15 A30 RMK A01 T01880150  RH  082%=      5-min Rain = 0
KSE1 231920Z 03010KT 19/15 A2999 RMK A01 T01880151  RH  082%=      5-min Rain = 0
KSE1 231925Z 03010KT 20/16 A2999 RMK A01 T01950155  RH  081%=      5-min Rain = 0
KSE1 231930Z 02010KT 19/15 A30 RMK A01 T01920152  RH  081%=      5-min Rain = 0
KSE1 231935Z 01011KT 19/15 A30 RMK A01 T01870147  RH  081%=      5-min Rain = 0
KSE1 231940Z 01010KT 19/15 A30 RMK A01 T01880150  RH  082%=      5-min Rain = 0
KSE1 231945Z 01010KT 19/15 A30 RMK A01 T01870148  RH  082%=      5-min Rain = 0
KSE1 231950Z 03009KT 19/15 A30 RMK A01 T01880146  RH  080%=      5-min Rain = 0
KSE1 231955Z 02009KT 19/15 A3001 RMK A01 T01870145  RH  080%=      5-min Rain = 0
KSE1 232000Z 02008KT 19/14 A3001 RMK A01 T01890143  RH  078%=      5-min Rain = 0
KSE1 232005Z 02009KT 19/15 A3001 RMK A01 T01940146  RH  077%=      5-min Rain = 0
KSE1 232010Z 03007KT 19/14 A3001 RMK A01 T01930140  RH  074%=      5-min Rain = 0
KSE1 232015Z 01006KT 20/14 A3001 RMK A01 T01950141  RH  074%=      5-min Rain = 0
KSE1 232020Z 02008KT 20/14 A3001 RMK A01 T01990143  RH  074%=      5-min Rain = 0
KSE1 232025Z 01007KT 20/14 A3001 RMK A01 T01970140  RH  073%=      5-min Rain = 0
KSE1 232030Z 36009KT 20/14 A30 RMK A01 T01950140  RH  073%=      5-min Rain = 0
KSE1 232035Z 02008KT 19/14 A30 RMK A01 T01940140  RH  074%=      5-min Rain = 0
KSE1 232040Z 01008KT 20/14 A30 RMK A01 T01950141  RH  074%=      5-min Rain = 0
KSE1 232045Z 35013KT 19/15 A30 RMK A01 T01900149  RH  081%=      5-min Rain = 0
KSE1 232050Z 34013KT 18/15 A30 RMK A01 T01820149  RH  084%=      5-min Rain = 0
KSE1 232055Z 35013KT 18/15 A30 RMK A01 T01810148  RH  085%=      5-min Rain = 0
KSE1 232100Z 35013KT 18/15 A30 RMK A01 T01810148  RH  085%=      5-min Rain = 0
KSE1 232105Z 34012KT 18/15 A2999 RMK A01 T01820148  RH  084%=      5-min Rain = 0
KSE1 232110Z 35011KT 18/15 A2999 RMK A01 T01830148  RH  084%=      5-min Rain = 0
KSE1 232115Z 35010KT 19/15 A2999 RMK A01 T01860150  RH  083%=      5-min Rain = 0
KSE1 232120Z 35011KT 19/15 A2999 RMK A01 T01870149  RH  082%=      5-min Rain = 0
KSE1 232125Z 36012KT 19/15 A2998 RMK A01 T01880147  RH  081%=      5-min Rain = 0
KSE1 232130Z 35012KT 19/15 A2998 RMK A01 T01900149  RH  080%=      5-min Rain = 0
KSE1 232135Z 35012KT 19/15 A2997 RMK A01 T01890147  RH  080%=      5-min Rain = 0
KSE1 232140Z 00012KT 19/15 A2997 RMK A01 T01910146  RH  079%=      5-min Rain = 0
KSE1 232145Z 35012KT 19/15 A2997 RMK A01 T01940151  RH  079%=      5-min Rain = 0
KSE1 232150Z 35012KT 19/15 A2997 RMK A01 T01930149  RH  079%=      5-min Rain = 0
KSE1 232155Z 35012KT 19/15 A2997 RMK A01 T01890145  RH  079%=      5-min Rain = 0
KSE1 232200Z 00012KT 19/15 A2997 RMK A01 T01900145  RH  078%=      5-min Rain = 0
KSE1 232205Z 00011KT 19/14 A2997 RMK A01 T01890143  RH  078%=      5-min Rain = 0
KSE1 232210Z 35011KT 19/15 A2997 RMK A01 T01910145  RH  078%=      5-min Rain = 0
KSE1 232215Z 00011KT 19/14 A2997 RMK A01 T01930144  RH  077%=      5-min Rain = 0
KSE1 232220Z 01011KT 20/15 A2996 RMK A01 T01950146  RH  077%=      5-min Rain = 0
KSE1 232225Z 01011KT 20/15 A2995 RMK A01 T01980147  RH  076%=      5-min Rain = 0
KSE1 232230Z 00012KT 20/15 A2995 RMK A01 T01960145  RH  076%=      5-min Rain = 0
KSE1 232235Z 00012KT 20/15 A2995 RMK A01 T01980146  RH  075%=      5-min Rain = 0
KSE1 232240Z 00012KT 20/15 A2995 RMK A01 T01960145  RH  075%=      5-min Rain = 0
KSE1 232245Z 00011KT 19/15 A2995 RMK A01 T01930145  RH  077%=      5-min Rain = 0
KSE1 232250Z 36013KT 19/14 A2995 RMK A01 T01940144  RH  076%=      5-min Rain = 0
KSE1 232255Z 36012KT 19/14 A2996 RMK A01 T01920143  RH  076%=      5-min Rain = 0
KSE1 232300Z 35010KT 19/15 A2996 RMK A01 T01930145  RH  077%=      5-min Rain = 0
KSE1 232305Z 00011KT 20/15 A2997 RMK A01 T01970145  RH  075%=      5-min Rain = 0
KSE1 232310Z 36012KT 19/14 A2996 RMK A01 T01930144  RH  076%=      5-min Rain = 0
KSE1 232315Z 00010KT 19/14 A2995 RMK A01 T01910144  RH  077%=      5-min Rain = 0
KSE1 232320Z 01010KT 19/14 A2996 RMK A01 T01900143  RH  077%=      5-min Rain = 0
KSE1 232325Z 36012KT 19/14 A2996 RMK A01 T01890143  RH  078%=      5-min Rain = 0
KSE1 232330Z 35012KT 19/14 A2997 RMK A01 T01870142  RH  078%=      5-min Rain = 0
KSE1 232335Z 35011KT 19/14 A2998 RMK A01 T01860141  RH  078%=      5-min Rain = 0
KSE1 232340Z 35011KT 19/14 A2997 RMK A01 T01860141  RH  078%=      5-min Rain = 0
KSE1 232345Z 34013KT 19/14 A2996 RMK A01 T01850140  RH  078%=      5-min Rain = 0
KSE1 232350Z 34013KT 18/14 A2996 RMK A01 T01840139  RH  078%=      5-min Rain = 0
KSE1 232355Z 34011KT 18/14 A2996 RMK A01 T01840139  RH  079%=      5-min Rain = 0
KSE1 240000Z 34012KT 18/14 A2995 RMK A01 T01830139  RH  079%=      5-min Rain = 0
KSE1 240005Z 35012KT 18/14 A2995 RMK A01 T01820139  RH  079%=      5-min Rain = 0
KSE1 240010Z 34010KT 18/14 A2995 RMK A01 T01820137  RH  079%=      5-min Rain = 0
KSE1 240015Z 34011KT 18/14 A2995 RMK A01 T01810138  RH  079%=      5-min Rain = 0
KSE1 240020Z 35008G13KT 18/14 A2995 RMK A01 T01800139  RH  080%=      5-min Rain = 0
KSE1 240025Z 35010KT 18/14 A2995 RMK A01 T01800137  RH  079%=      5-min Rain = 0
KSE1 240030Z 35011KT 18/14 A2995 RMK A01 T01800137  RH  079%=      5-min Rain = 0
KSE1 240035Z 35011KT 18/14 A2995 RMK A01 T01780136  RH  080%=      5-min Rain = 0
KSE1 240040Z 35012KT 18/14 A2995 RMK A01 T01780137  RH  080%=      5-min Rain = 0
KSE1 240045Z 34014KT 18/14 A2994 RMK A01 T01770135  RH  080%=      5-min Rain = 0
KSE1 240050Z 35012KT 18/14 A2995 RMK A01 T01760136  RH  080%=      5-min Rain = 0
KSE1 240055Z 35012KT 18/14 A2995 RMK A01 T01760135  RH  080%=      5-min Rain = 0
KSE1 240100Z 34011KT 18/14 A2996 RMK A01 T01760136  RH  081%=      5-min Rain = 0
KSE1 240105Z 34012KT 17/14 A2996 RMK A01 T01740137  RH  082%=      5-min Rain = 0
KSE1 240110Z 34011KT 17/14 A2996 RMK A01 T01720138  RH  084%=      5-min Rain = 0
KSE1 240115Z 35012KT 17/14 A2996 RMK A01 T01710138  RH  085%=      5-min Rain = 0
KSE1 240120Z 35014KT 17/14 A2997 RMK A01 T01690136  RH  084%=      5-min Rain = 0
KSE1 240125Z 35012KT 17/14 A2997 RMK A01 T01690135  RH  084%=      5-min Rain = 0
KSE1 240130Z 36012KT 17/14 A2997 RMK A01 T01680135  RH  084%=      5-min Rain = 0
KSE1 240135Z 35011KT 17/14 A2997 RMK A01 T01670135  RH  085%=      5-min Rain = 0
KSE1 240140Z 00012KT 17/14 A2997 RMK A01 T01660135  RH  085%=      5-min Rain = 0
KSE1 240145Z 35011KT 17/14 A2997 RMK A01 T01660136  RH  086%=      5-min Rain = 0
KSE1 240150Z 01011KT 17/14 A2997 RMK A01 T01650136  RH  086%=      5-min Rain = 0
KSE1 240155Z 01012KT 16/14 A2997 RMK A01 T01630136  RH  087%=      5-min Rain = 0
KSE1 240200Z 00013KT 16/13 A2997 RMK A01 T01620134  RH  087%=      5-min Rain = 0
KSE1 240205Z 36012KT 16/13 A2998 RMK A01 T01630133  RH  086%=      5-min Rain = 0
KSE1 240210Z 35009KT 16/14 A2998 RMK A01 T01630135  RH  087%=      5-min Rain = 0
KSE1 240215Z 35010KT 16/14 A2998 RMK A01 T01630137  RH  088%=      5-min Rain = 0
KSE1 240220Z 00010KT 16/14 A2997 RMK A01 T01630136  RH  088%=      5-min Rain = 0
KSE1 240225Z 01012KT 16/14 A2996 RMK A01 T01610135  RH  088%=      5-min Rain = 0
KSE1 240230Z 35014KT 16/13 A2997 RMK A01 T01610134  RH  088%=      5-min Rain = 0
KSE1 240235Z 35014KT 16/13 A2997 RMK A01 T01610133  RH  087%=      5-min Rain = 0
KSE1 240240Z 35014KT 16/13 A2998 RMK A01 T01600133  RH  087%=      5-min Rain = 0
KSE1 240245Z 00013KT 16/13 A2997 RMK A01 T01590131  RH  087%=      5-min Rain = 0
KSE1 240250Z 36012KT 16/13 A2998 RMK A01 T01590131  RH  087%=      5-min Rain = 0
KSE1 240255Z 35013G18KT 16/13 A2999 RMK A01 T01580131  RH  087%=      5-min Rain = 0
KSE1 240300Z 36014G20KT 16/13 A2998 RMK A01 T01570130  RH  087%=      5-min Rain = 0
KSE1 240305Z 36015KT 16/13 A2999 RMK A01 T01570128  RH  086%=      5-min Rain = 0
KSE1 240310Z 36014KT 16/13 A2999 RMK A01 T01560129  RH  087%=      5-min Rain = 0
KSE1 240315Z 00013G19KT 16/13 A2998 RMK A01 T01560128  RH  087%=      5-min Rain = 0
KSE1 240320Z 01013KT 16/13 A2998 RMK A01 T01550128  RH  087%=      5-min Rain = 0
KSE1 240325Z 01011KT 15/13 A2998 RMK A01 T01540128  RH  088%=      5-min Rain = 0
KSE1 240330Z 01013KT 15/13 A2996 RMK A01 T01540128  RH  088%=      5-min Rain = 0
KSE1 240335Z 01013KT 15/13 A2995 RMK A01 T01530129  RH  089%=      5-min Rain = 0
KSE1 240340Z 02011KT 15/13 A2995 RMK A01 T01530129  RH  089%=      5-min Rain = 0
KSE1 240345Z 02010KT 15/13 A2995 RMK A01 T01530130  RH  090%=      5-min Rain = 0
KSE1 240350Z 02011KT 15/13 A2995 RMK A01 T01530130  RH  090%=      5-min Rain = 0
KSE1 240355Z 01012KT 15/13 A2994 RMK A01 T01520129  RH  089%=      5-min Rain = 0
KSE1 240400Z 01012KT 15/13 A2994 RMK A01 T01520129  RH  089%=      5-min Rain = 0
KSE1 240405Z 01011KT 15/13 A2995 RMK A01 T01520129  RH  090%=      5-min Rain = 0
KSE1 240410Z 02009KT 15/13 A2996 RMK A01 T01520130  RH  090%=      5-min Rain = 0
KSE1 240415Z 03008KT 15/13 A2997 RMK A01 T01520130  RH  090%=      5-min Rain = 0
KSE1 240420Z 03009KT 15/13 A2998 RMK A01 T01520130  RH  090%=      5-min Rain = 0
KSE1 240425Z 02009KT 15/13 A2998 RMK A01 T01520130  RH  090%=      5-min Rain = 0
KSE1 240430Z 02009KT 15/13 A2998 RMK A01 T01520130  RH  090%=      5-min Rain = 0
KSE1 240435Z 03008KT 15/13 A2999 RMK A01 T01520131  RH  090%=      5-min Rain = 0
KSE1 240440Z 04008KT 15/13 A2999 RMK A01 T01520131  RH  091%=      5-min Rain = 0
KSE1 240445Z 03008KT 15/13 A2999 RMK A01 T01510131  RH  091%=      5-min Rain = 0
KSE1 240450Z 03008KT 15/13 A2999 RMK A01 T01510130  RH  091%=      5-min Rain = 0
KSE1 240455Z 02007KT 15/13 A30 RMK A01 T01510130  RH  091%=      5-min Rain = 0

Page generated in 0.0092 seconds.